createdAt,value
2023-12-11T00:01:00.030Z,98547.66
2023-12-11T00:05:56.515Z,98559.28
2023-12-11T00:10:52.926Z,98557.47
2023-12-11T00:15:49.304Z,98555.78
2023-12-11T00:20:45.810Z,98565.25
2023-12-11T00:25:47.039Z,98554.63
2023-12-11T00:30:43.396Z,98565.56
2023-12-11T00:35:40.173Z,98570.56
2023-12-11T00:40:36.569Z,98573.25
2023-12-11T00:45:33.022Z,98576.91
2023-12-11T00:50:29.448Z,98579.56
2023-12-11T00:55:25.839Z,98580.22
2023-12-11T01:00:22.582Z,98562.56
2023-12-11T01:05:19.741Z,98566.00
2023-12-11T01:10:16.345Z,98575.41
2023-12-11T01:15:12.851Z,98583.47
2023-12-11T01:20:10.199Z,98592.88
2023-12-11T01:25:08.064Z,98602.44
2023-12-11T01:30:05.018Z,98597.44
2023-12-11T01:35:01.919Z,98606.53
2023-12-11T01:39:58.323Z,98613.75
2023-12-11T01:44:54.830Z,98623.22
2023-12-11T01:49:51.355Z,98621.94
2023-12-11T01:54:48.139Z,98634.38
2023-12-11T01:59:47.526Z,98617.63
2023-12-11T02:04:45.522Z,98610.44
2023-12-11T02:09:41.993Z,98602.53
2023-12-11T02:14:38.505Z,98614.81
2023-12-11T02:19:34.949Z,98595.56
2023-12-11T02:24:42.779Z,98602.53
2023-12-11T02:29:39.160Z,98598.75
2023-12-11T02:34:35.537Z,98599.13
2023-12-11T02:39:31.982Z,98584.56
2023-12-11T02:44:28.470Z,98579.78
2023-12-11T02:49:24.962Z,98575.13
2023-12-11T02:54:21.456Z,98569.97
2023-12-11T02:59:17.792Z,98576.09
2023-12-11T03:04:14.275Z,98566.28
2023-12-11T03:09:10.715Z,98561.97
2023-12-11T03:14:07.092Z,98559.97
2023-12-11T03:19:03.570Z,98549.38
2023-12-11T03:23:59.972Z,98531.78
2023-12-11T03:28:56.325Z,98529.50
2023-12-11T03:33:52.733Z,98518.03
2023-12-11T03:38:49.140Z,98521.69
2023-12-11T03:43:45.465Z,98514.09
2023-12-11T03:48:41.881Z,98514.91
2023-12-11T03:53:38.404Z,98507.63
2023-12-11T03:58:34.783Z,98509.81
2023-12-11T04:03:32.839Z,98516.28
2023-12-11T04:08:29.214Z,98508.16
2023-12-11T04:13:25.559Z,98503.50
2023-12-11T04:18:22.013Z,98510.13
2023-12-11T04:23:18.444Z,98497.53
2023-12-11T04:28:14.918Z,98496.84
2023-12-11T04:33:11.462Z,98487.72
2023-12-11T04:38:07.839Z,98490.06
2023-12-11T04:43:04.306Z,98489.72
2023-12-11T04:48:00.730Z,98474.41
2023-12-11T04:52:57.085Z,98478.00
2023-12-11T04:57:53.423Z,98466.03
2023-12-11T05:02:49.817Z,98470.69
2023-12-11T05:07:46.174Z,98460.31
2023-12-11T05:12:42.666Z,98447.59
2023-12-11T05:17:39.180Z,98443.31
2023-12-11T05:22:35.582Z,98430.69
2023-12-11T05:27:32.072Z,98436.00
2023-12-11T05:32:28.546Z,98420.06
2023-12-11T05:37:25.234Z,98419.44
2023-12-11T05:42:21.600Z,98415.81
2023-12-11T05:47:17.917Z,98406.16
2023-12-11T05:52:14.369Z,98410.16
2023-12-11T05:57:10.722Z,98415.97
2023-12-11T06:02:07.157Z,98416.16
2023-12-11T06:07:03.761Z,98421.94
2023-12-11T06:12:00.075Z,98418.63
2023-12-11T06:16:56.429Z,98417.47
2023-12-11T06:21:52.817Z,98413.97
2023-12-11T06:26:49.140Z,98424.03
2023-12-11T06:31:45.453Z,98417.78
2023-12-11T06:36:41.906Z,98413.13
2023-12-11T06:41:38.311Z,98418.06
2023-12-11T06:46:34.649Z,98409.41
2023-12-11T06:51:31.041Z,98407.28
2023-12-11T06:56:31.976Z,98407.75
2023-12-11T07:01:32.619Z,98406.06
2023-12-11T07:06:29.119Z,98410.72
2023-12-11T07:11:26.188Z,98404.09
2023-12-11T07:16:24.556Z,98416.03
2023-12-11T07:21:21.105Z,98399.47
2023-12-11T07:26:17.536Z,98411.06
2023-12-11T07:31:13.967Z,98417.06
2023-12-11T07:36:11.757Z,98409.75
2023-12-11T07:41:08.505Z,98425.53
2023-12-11T07:46:05.039Z,98425.66
2023-12-11T07:51:01.489Z,98434.47
2023-12-11T07:55:57.809Z,98427.66
2023-12-11T08:00:54.322Z,98421.66
2023-12-11T08:05:51.174Z,98416.69
2023-12-11T08:10:48.060Z,98413.38
2023-12-11T08:15:45.038Z,98408.06
2023-12-11T08:20:41.470Z,98409.41
2023-12-11T08:25:38.549Z,98400.78
2023-12-11T08:30:35.250Z,98403.09
2023-12-11T08:35:31.629Z,98400.28
2023-12-11T08:40:28.019Z,98399.81
2023-12-11T08:45:24.556Z,98405.44
2023-12-11T08:50:21.156Z,98404.72
2023-12-11T08:55:17.705Z,98412.66
2023-12-11T09:00:14.808Z,98409.97
2023-12-11T09:05:11.250Z,98413.53
2023-12-11T09:10:09.555Z,98418.75
2023-12-11T09:15:06.888Z,98413.69
2023-12-11T09:20:06.111Z,98435.84
2023-12-11T09:25:02.691Z,98433.66
2023-12-11T09:29:59.713Z,98439.28
2023-12-11T09:34:56.230Z,98448.34
2023-12-11T09:39:52.685Z,98446.72
2023-12-11T09:44:49.449Z,98456.63
2023-12-11T09:49:47.164Z,98455.78
2023-12-11T09:54:43.800Z,98470.25
2023-12-11T09:59:41.699Z,98463.19
2023-12-11T10:04:38.060Z,98472.97
2023-12-11T10:09:34.833Z,98482.34
2023-12-11T10:14:32.052Z,98481.16
2023-12-11T10:19:33.167Z,98484.94
2023-12-11T10:24:30.490Z,98493.88
2023-12-11T10:29:33.344Z,98474.91
2023-12-11T10:34:47.316Z,98474.16
2023-12-11T10:39:54.455Z,98470.38
2023-12-11T10:44:54.234Z,98465.97
2023-12-11T10:49:51.841Z,98471.56
2023-12-11T10:54:48.539Z,98470.72
2023-12-11T10:59:45.867Z,98476.16
2023-12-11T11:04:44.489Z,98473.16
2023-12-11T11:09:43.870Z,98480.22
2023-12-11T11:14:49.092Z,98489.00
2023-12-11T11:20:13.612Z,98474.28
2023-12-11T11:25:28.982Z,98481.09
2023-12-11T11:30:52.535Z,98499.06
2023-12-11T11:35:51.147Z,98519.75
2023-12-11T11:40:49.829Z,98516.13
2023-12-11T11:45:46.426Z,98531.38
2023-12-11T11:50:55.268Z,98534.09
2023-12-11T11:55:51.888Z,98546.28
2023-12-11T12:00:50.543Z,98563.34
2023-12-11T12:05:56.817Z,98573.31
2023-12-11T12:10:57.492Z,98593.75
2023-12-11T12:15:54.374Z,98590.50
2023-12-11T12:21:03.929Z,98613.28
2023-12-11T12:26:03.725Z,98637.22
2023-12-11T12:31:00.292Z,98653.03
2023-12-11T12:35:57.085Z,98671.59
2023-12-11T12:40:54.770Z,98671.44
2023-12-11T12:45:51.143Z,98689.59
2023-12-11T12:50:47.503Z,98688.03
2023-12-11T12:55:43.933Z,98697.50
2023-12-11T13:00:42.134Z,98712.50
2023-12-11T13:05:45.020Z,98715.03
2023-12-11T13:10:57.989Z,98724.78
2023-12-11T13:15:54.533Z,98734.44
2023-12-11T13:20:51.446Z,98740.00
2023-12-11T13:25:47.891Z,98754.50
2023-12-11T13:30:45.240Z,98756.72
2023-12-11T13:35:41.703Z,98759.28
2023-12-11T13:40:38.039Z,98756.38
2023-12-11T13:45:34.383Z,98760.72
2023-12-11T13:50:31.575Z,98769.13
2023-12-11T13:55:27.942Z,98769.03
2023-12-11T14:00:24.455Z,98789.69
2023-12-11T14:05:21.054Z,98780.06
2023-12-11T14:10:17.935Z,98803.63
2023-12-11T14:15:14.308Z,98806.44
2023-12-11T14:20:12.167Z,98830.41
2023-12-11T14:25:09.810Z,98837.91
2023-12-11T14:30:07.057Z,98843.19
2023-12-11T14:35:04.020Z,98861.38
2023-12-11T14:40:00.582Z,98876.03
2023-12-11T14:44:57.077Z,98876.88
2023-12-11T14:49:53.670Z,98870.06
2023-12-11T14:54:50.133Z,98882.34
2023-12-11T14:59:46.725Z,98896.88
2023-12-11T15:04:43.105Z,98910.16
2023-12-11T15:09:40.637Z,98934.53
2023-12-11T15:14:37.278Z,98942.66
2023-12-11T15:19:33.719Z,98953.78
2023-12-11T15:24:31.287Z,98961.31
2023-12-11T15:29:27.655Z,98968.84
2023-12-11T15:34:24.110Z,98979.44
2023-12-11T15:39:23.552Z,98980.84
2023-12-11T15:44:20.005Z,98985.03
2023-12-11T15:49:16.857Z,98997.84
2023-12-11T15:54:13.374Z,99011.47
2023-12-11T15:59:09.823Z,99019.81
2023-12-11T16:04:07.067Z,99031.81
2023-12-11T16:09:04.392Z,99025.13
2023-12-11T16:14:01.592Z,99032.31
2023-12-11T16:18:58.181Z,99040.25
2023-12-11T16:23:57.665Z,99055.59
2023-12-11T16:28:54.202Z,99072.13
2023-12-11T16:33:51.707Z,99076.69
2023-12-11T16:38:48.675Z,99088.56
2023-12-11T16:43:49.012Z,99094.44
2023-12-11T16:48:46.030Z,99093.88
2023-12-11T16:53:43.264Z,99114.31
2023-12-11T16:58:40.001Z,99120.19
2023-12-11T17:03:36.419Z,99128.50
2023-12-11T17:08:32.768Z,99137.25
2023-12-11T17:13:29.271Z,99146.84
2023-12-11T17:18:26.056Z,99147.84
2023-12-11T17:23:22.596Z,99152.16
2023-12-11T17:28:18.959Z,99165.66
2023-12-11T17:33:15.309Z,99159.50
2023-12-11T17:38:11.887Z,99171.91
2023-12-11T17:43:09.291Z,99179.59
2023-12-11T17:48:06.315Z,99179.13
2023-12-11T17:53:03.047Z,99182.31
2023-12-11T17:57:59.494Z,99183.66
2023-12-11T18:02:55.860Z,99194.63
2023-12-11T18:07:52.631Z,99210.50
2023-12-11T18:12:49.155Z,99208.56
2023-12-11T18:17:45.607Z,99219.59
2023-12-11T18:22:43.554Z,99222.81
2023-12-11T18:27:40.391Z,99235.94
2023-12-11T18:32:37.154Z,99243.59
2023-12-11T18:37:34.002Z,99252.28
2023-12-11T18:42:31.698Z,99246.97
2023-12-11T18:47:28.344Z,99247.84
2023-12-11T18:52:24.874Z,99243.56
2023-12-11T18:57:21.326Z,99257.41
2023-12-11T19:02:19.003Z,99256.22
2023-12-11T19:07:15.822Z,99270.91
2023-12-11T19:12:12.796Z,99286.56
2023-12-11T19:17:09.115Z,99287.91
2023-12-11T19:22:05.553Z,99290.78
2023-12-11T19:27:01.909Z,99292.13
2023-12-11T19:31:58.439Z,99309.91
2023-12-11T19:36:55.033Z,99306.44
2023-12-11T19:41:51.947Z,99305.00
2023-12-11T19:46:48.404Z,99307.28
2023-12-11T19:51:45.070Z,99307.28
2023-12-11T19:56:43.470Z,99318.09
2023-12-11T20:01:39.901Z,99323.84
2023-12-11T20:06:36.343Z,99328.63
2023-12-11T20:11:33.075Z,99335.34
2023-12-11T20:16:30.248Z,99328.41
2023-12-11T20:21:26.772Z,99336.19
2023-12-11T20:26:24.393Z,99331.41
2023-12-11T20:31:21.013Z,99336.09
2023-12-11T20:36:18.843Z,99343.28
2023-12-11T20:41:26.691Z,99350.53
2023-12-11T20:46:25.168Z,99344.03
2023-12-11T20:51:23.433Z,99341.41
2023-12-11T20:56:24.017Z,99362.91
2023-12-11T21:01:30.552Z,99370.47
2023-12-11T21:06:28.420Z,99372.88
2023-12-11T21:11:26.231Z,99372.75
2023-12-11T21:16:22.687Z,99374.19
2023-12-11T21:21:20.974Z,99382.22
2023-12-11T21:26:19.701Z,99372.22
2023-12-11T21:31:27.767Z,99385.78
2023-12-11T21:36:25.965Z,99402.81
2023-12-11T21:41:22.383Z,99405.72
2023-12-11T21:46:19.997Z,99416.75
2023-12-11T21:51:19.870Z,99422.25
2023-12-11T21:56:16.386Z,99413.63
2023-12-11T22:01:13.062Z,99432.19
2023-12-11T22:06:12.774Z,99440.88
2023-12-11T22:11:14.094Z,99452.28
2023-12-11T22:16:11.084Z,99450.81
2023-12-11T22:21:07.538Z,99465.22
2023-12-11T22:26:04.048Z,99475.16
2023-12-11T22:31:00.632Z,99487.63
2023-12-11T22:35:57.088Z,99495.53
2023-12-11T22:40:53.470Z,99509.13
2023-12-11T22:45:49.965Z,99505.31
2023-12-11T22:50:46.519Z,99520.72
2023-12-11T22:55:42.944Z,99527.47
2023-12-11T23:00:39.382Z,99528.63
2023-12-11T23:05:35.858Z,99526.44
2023-12-11T23:10:33.697Z,99533.13
2023-12-11T23:15:30.169Z,99539.50
2023-12-11T23:20:26.741Z,99532.19
2023-12-11T23:25:23.865Z,99545.38
2023-12-11T23:30:20.281Z,99546.34
2023-12-11T23:35:16.707Z,99545.47
2023-12-11T23:40:13.397Z,99538.81
2023-12-11T23:45:10.024Z,99532.56
2023-12-11T23:50:07.190Z,99544.22
2023-12-11T23:55:04.379Z,99545.34
